sensor_id;sensor_type;location;lat;lon;timestamp;pressure;altitude;pressure_sealevel;temperature;humidity
74427;BME280;62859;53.906;27.430;2024-02-26T00:04:20;1006.5;;;7.7;80
74427;BME280;62859;53.906;27.430;2024-02-26T00:10:02;1006.5;;;7.8;80.4
74427;BME280;62859;53.906;27.430;2024-02-26T00:14:54;1006.4;;;7.7;80.1
74427;BME280;62859;53.906;27.430;2024-02-26T00:19:46;1006.4;;;7.7;80.2
74427;BME280;62859;53.906;27.430;2024-02-26T00:24:18;1006.4;;;7.7;80.3
74427;BME280;62859;53.906;27.430;2024-02-26T00:29:54;1006.4;;;7.6;80
74427;BME280;62859;53.906;27.430;2024-02-26T00:34:42;1006.3;;;7.6;80.4
74427;BME280;62859;53.906;27.430;2024-02-26T00:40:04;1006.2;;;7.6;80.3
74427;BME280;62859;53.906;27.430;2024-02-26T00:44:34;1006.2;;;7.6;80.3
74427;BME280;62859;53.906;27.430;2024-02-26T00:49:54;1006.2;;;7.6;80.3
74427;BME280;62859;53.906;27.430;2024-02-26T00:54:56;1006.1;;;7.6;81.2
74427;BME280;62859;53.906;27.430;2024-02-26T00:59:26;1006;;;7.6;80.8
74427;BME280;62859;53.906;27.430;2024-02-26T01:04:26;1006;;;7.5;80.9
74427;BME280;62859;53.906;27.430;2024-02-26T01:09:36;1005.9;;;7.5;81.4
74427;BME280;62859;53.906;27.430;2024-02-26T01:14:18;1006;;;7.5;81.1
74427;BME280;62859;53.906;27.430;2024-02-26T01:19:18;1005.9;;;7.4;81.2
74427;BME280;62859;53.906;27.430;2024-02-26T01:24:18;1005.9;;;7.4;81.4
74427;BME280;62859;53.906;27.430;2024-02-26T01:29:18;1005.9;;;7.5;81.3
74427;BME280;62859;53.906;27.430;2024-02-26T01:34:46;1005.8;;;7.6;80.7
74427;BME280;62859;53.906;27.430;2024-02-26T01:39:46;1005.8;;;7.7;81.2
74427;BME280;62859;53.906;27.430;2024-02-26T01:45:04;1005.7;;;7.8;79.9
74427;BME280;62859;53.906;27.430;2024-02-26T01:49:46;1005.7;;;7.8;79.9
74427;BME280;62859;53.906;27.430;2024-02-26T01:54:54;1005.7;;;7.8;79.9
74427;BME280;62859;53.906;27.430;2024-02-26T02:00:04;1005.7;;;7.8;79.4
74427;BME280;62859;53.906;27.430;2024-02-26T02:05:04;1005.7;;;7.8;79.2
74427;BME280;62859;53.906;27.430;2024-02-26T02:09:50;1005.7;;;7.8;79.2
74427;BME280;62859;53.906;27.430;2024-02-26T02:15:04;1005.8;;;7.9;79.7
74427;BME280;62859;53.906;27.430;2024-02-26T02:19:26;1005.8;;;7.9;79.7
74427;BME280;62859;53.906;27.430;2024-02-26T02:24:28;1005.7;;;7.9;79
74427;BME280;62859;53.906;27.430;2024-02-26T02:30:04;1005.8;;;7.8;79.1
74427;BME280;62859;53.906;27.430;2024-02-26T02:34:44;1005.8;;;7.8;79.1
74427;BME280;62859;53.906;27.430;2024-02-26T02:39:18;1005.8;;;7.8;79.2
74427;BME280;62859;53.906;27.430;2024-02-26T02:44:18;1005.7;;;7.8;79
74427;BME280;62859;53.906;27.430;2024-02-26T02:49:34;1005.7;;;7.7;79.3
74427;BME280;62859;53.906;27.430;2024-02-26T02:54:34;1005.7;;;7.7;79.5
74427;BME280;62859;53.906;27.430;2024-02-26T02:59:54;1005.7;;;7.8;79.4
74427;BME280;62859;53.906;27.430;2024-02-26T03:04:18;1005.7;;;7.8;79.6
74427;BME280;62859;53.906;27.430;2024-02-26T03:09:54;1005.7;;;7.8;79.9
74427;BME280;62859;53.906;27.430;2024-02-26T03:14:54;1005.7;;;7.8;80
74427;BME280;62859;53.906;27.430;2024-02-26T03:20:04;1005.6;;;7.8;79.4
74427;BME280;62859;53.906;27.430;2024-02-26T03:24:54;1005.6;;;7.8;79.4
74427;BME280;62859;53.906;27.430;2024-02-26T03:29:54;1005.5;;;7.9;79.6
74427;BME280;62859;53.906;27.430;2024-02-26T03:35:04;1005.5;;;7.8;79.5
74427;BME280;62859;53.906;27.430;2024-02-26T03:40:04;1005.6;;;7.8;79.5
74427;BME280;62859;53.906;27.430;2024-02-26T03:44:44;1005.6;;;7.8;79.5
74427;BME280;62859;53.906;27.430;2024-02-26T03:49:18;1005.6;;;7.8;80.2
74427;BME280;62859;53.906;27.430;2024-02-26T03:55:04;1005.7;;;7.9;80.1
74427;BME280;62859;53.906;27.430;2024-02-26T03:59:46;1005.7;;;7.9;80.1
74427;BME280;62859;53.906;27.430;2024-02-26T04:05:04;1005.7;;;7.9;79.6
74427;BME280;62859;53.906;27.430;2024-02-26T04:09:34;1005.7;;;7.9;79.6
74427;BME280;62859;53.906;27.430;2024-02-26T04:15:04;1005.6;;;7.9;79.3
74427;BME280;62859;53.906;27.430;2024-02-26T04:19:18;1005.6;;;7.9;79.3
74427;BME280;62859;53.906;27.430;2024-02-26T04:24:18;1005.6;;;7.9;79.2
74427;BME280;62859;53.906;27.430;2024-02-26T04:29:36;1005.6;;;7.9;79.3
74427;BME280;62859;53.906;27.430;2024-02-26T04:34:18;1005.6;;;7.8;79.2
74427;BME280;62859;53.906;27.430;2024-02-26T04:39:18;1005.5;;;7.9;80
74427;BME280;62859;53.906;27.430;2024-02-26T04:45:04;1005.5;;;7.8;80.4
74427;BME280;62859;53.906;27.430;2024-02-26T04:49:54;1005.5;;;7.8;80.4
74427;BME280;62859;53.906;27.430;2024-02-26T04:54:18;1005.5;;;7.8;79.9
74427;BME280;62859;53.906;27.430;2024-02-26T05:00:04;1005.6;;;7.9;79.3
74427;BME280;62859;53.906;27.430;2024-02-26T05:04:44;1005.6;;;7.9;79.3
74427;BME280;62859;53.906;27.430;2024-02-26T05:09:44;1005.6;;;7.9;79.1
74427;BME280;62859;53.906;27.430;2024-02-26T05:15:04;1005.6;;;7.8;79
74427;BME280;62859;53.906;27.430;2024-02-26T05:19:44;1005.6;;;7.8;79
74427;BME280;62859;53.906;27.430;2024-02-26T05:24:18;1005.6;;;7.8;79.4
74427;BME280;62859;53.906;27.430;2024-02-26T05:29:46;1005.5;;;7.8;79.4
74427;BME280;62859;53.906;27.430;2024-02-26T05:34:32;1005.6;;;7.8;79.8
74427;BME280;62859;53.906;27.430;2024-02-26T05:39:42;1005.8;;;7.8;79.4
74427;BME280;62859;53.906;27.430;2024-02-26T05:44:18;1005.9;;;7.8;79.3
74427;BME280;62859;53.906;27.430;2024-02-26T05:49:46;1005.9;;;7.8;79
74427;BME280;62859;53.906;27.430;2024-02-26T05:55:04;1005.9;;;7.8;78.7
74427;BME280;62859;53.906;27.430;2024-02-26T05:59:36;1005.9;;;7.8;78.7
74427;BME280;62859;53.906;27.430;2024-02-26T06:04:18;1005.9;;;7.7;78.7
74427;BME280;62859;53.906;27.430;2024-02-26T06:09:18;1005.9;;;7.8;79.6
74427;BME280;62859;53.906;27.430;2024-02-26T06:14:26;1005.9;;;7.8;78.8
74427;BME280;62859;53.906;27.430;2024-02-26T06:19:18;1006;;;7.8;78.4
74427;BME280;62859;53.906;27.430;2024-02-26T06:24:28;1006.1;;;7.8;78.2
74427;BME280;62859;53.906;27.430;2024-02-26T06:29:36;1006;;;7.8;77.8
74427;BME280;62859;53.906;27.430;2024-02-26T06:34:54;1006;;;7.8;77.6
74427;BME280;62859;53.906;27.430;2024-02-26T06:40:02;1006;;;7.7;77.7
74427;BME280;62859;53.906;27.430;2024-02-26T06:44:42;1006;;;7.7;77.7
74427;BME280;62859;53.906;27.430;2024-02-26T06:49:34;1006.1;;;7.7;77.8
74427;BME280;62859;53.906;27.430;2024-02-26T06:54:42;1006.1;;;7.7;77.8
74427;BME280;62859;53.906;27.430;2024-02-26T06:59:34;1006.2;;;7.8;77.6
74427;BME280;62859;53.906;27.430;2024-02-26T07:04:18;1006.3;;;7.8;77.1
74427;BME280;62859;53.906;27.430;2024-02-26T07:09:34;1006.3;;;7.8;77.2
74427;BME280;62859;53.906;27.430;2024-02-26T07:14:42;1006.4;;;7.7;76.9
74427;BME280;62859;53.906;27.430;2024-02-26T07:19:34;1006.5;;;7.7;76.9
74427;BME280;62859;53.906;27.430;2024-02-26T07:25:02;1006.4;;;7.8;76.6
74427;BME280;62859;53.906;27.430;2024-02-26T07:30:02;1006.4;;;7.9;76.1
74427;BME280;62859;53.906;27.430;2024-02-26T07:34:44;1006.3;;;7.9;75.8
74427;BME280;62859;53.906;27.430;2024-02-26T07:39:18;1006.3;;;7.9;75.4
74427;BME280;62859;53.906;27.430;2024-02-26T07:44:18;1006.3;;;7.9;76.1
74427;BME280;62859;53.906;27.430;2024-02-26T07:49:26;1006.1;;;7.8;75.7
74427;BME280;62859;53.906;27.430;2024-02-26T07:54:34;1006.1;;;7.8;75.6
74427;BME280;62859;53.906;27.430;2024-02-26T07:59:42;1006.2;;;7.7;76
74427;BME280;62859;53.906;27.430;2024-02-26T08:04:44;1006.3;;;7.6;76.1
74427;BME280;62859;53.906;27.430;2024-02-26T08:09:54;1006.4;;;7.7;76.1
74427;BME280;62859;53.906;27.430;2024-02-26T08:14:44;1006.5;;;7.7;75.9
74427;BME280;62859;53.906;27.430;2024-02-26T08:20:02;1006.5;;;7.7;75.8
74427;BME280;62859;53.906;27.430;2024-02-26T08:24:18;1006.4;;;7.7;75.6
74427;BME280;62859;53.906;27.430;2024-02-26T08:29:54;1006.4;;;7.8;76.5
74427;BME280;62859;53.906;27.430;2024-02-26T08:34:26;1006.5;;;7.8;75.9
74427;BME280;62859;53.906;27.430;2024-02-26T08:39:46;1006.5;;;7.8;75.4
74427;BME280;62859;53.906;27.430;2024-02-26T08:44:26;1006.6;;;7.8;75.7
74427;BME280;62859;53.906;27.430;2024-02-26T08:49:46;1006.5;;;7.7;75.5
74427;BME280;62859;53.906;27.430;2024-02-26T08:54:24;1006.4;;;7.7;75.7
74427;BME280;62859;53.906;27.430;2024-02-26T08:59:52;1006.4;;;7.6;75.8
74427;BME280;62859;53.906;27.430;2024-02-26T09:05:02;1006.4;;;7.7;75.6
74427;BME280;62859;53.906;27.430;2024-02-26T09:09:32;1006.4;;;7.7;75.2
74427;BME280;62859;53.906;27.430;2024-02-26T09:14:52;1006.4;;;7.8;75.8
74427;BME280;62859;53.906;27.430;2024-02-26T09:19:36;1006.4;;;7.8;75.7
74427;BME280;62859;53.906;27.430;2024-02-26T09:24:34;1006.5;;;7.7;75.5
74427;BME280;62859;53.906;27.430;2024-02-26T09:29:20;1006.7;;;7.7;75.4
74427;BME280;62859;53.906;27.430;2024-02-26T09:34:39;1006.7;;;7.7;75.4
74427;BME280;62859;53.906;27.430;2024-02-26T09:39:28;1006.6;;;7.6;75.3
74427;BME280;62859;53.906;27.430;2024-02-26T09:45:04;1006.7;;;7.6;75.5
74427;BME280;62859;53.906;27.430;2024-02-26T09:50:02;1006.7;;;7.6;75.7
74427;BME280;62859;53.906;27.430;2024-02-26T09:55:03;1006.8;;;7.6;75.6
74427;BME280;62859;53.906;27.430;2024-02-26T10:00:03;1006.8;;;7.8;75.8
74427;BME280;62859;53.906;27.430;2024-02-26T10:04:54;1006.8;;;7.7;75.7
74427;BME280;62859;53.906;27.430;2024-02-26T10:10:03;1006.7;;;7.7;75.5
74427;BME280;62859;53.906;27.430;2024-02-26T10:15:02;1006.7;;;7.7;75.5
74427;BME280;62859;53.906;27.430;2024-02-26T10:19:44;1006.7;;;7.7;75.1
74427;BME280;62859;53.906;27.430;2024-02-26T10:24:27;1006.7;;;7.7;74.9
74427;BME280;62859;53.906;27.430;2024-02-26T10:30:05;1006.7;;;7.6;75.1
74427;BME280;62859;53.906;27.430;2024-02-26T10:34:55;1006.7;;;7.6;75.1
74427;BME280;62859;53.906;27.430;2024-02-26T10:40:05;1006.9;;;7.7;75.4
74427;BME280;62859;53.906;27.430;2024-02-26T10:44:54;1006.9;;;7.7;75.4
74427;BME280;62859;53.906;27.430;2024-02-26T10:49:55;1006.9;;;7.7;75.4
74427;BME280;62859;53.906;27.430;2024-02-26T10:54:37;1006.9;;;7.7;75.4
74427;BME280;62859;53.906;27.430;2024-02-26T10:59:55;1006.8;;;7.7;75.2
74427;BME280;62859;53.906;27.430;2024-02-26T11:04:18;1006.8;;;7.7;75.3
74427;BME280;62859;53.906;27.430;2024-02-26T11:09:26;1006.9;;;7.6;75.1
74427;BME280;62859;53.906;27.430;2024-02-26T11:14:26;1006.8;;;7.7;75.2
74427;BME280;62859;53.906;27.430;2024-02-26T11:20:05;1006.7;;;7.6;76.1
74427;BME280;62859;53.906;27.430;2024-02-26T11:24:28;1006.7;;;7.6;76.1
74427;BME280;62859;53.906;27.430;2024-02-26T11:29:19;1006.7;;;7.5;76.1
74427;BME280;62859;53.906;27.430;2024-02-26T11:35:05;1006.8;;;7.6;75.7
74427;BME280;62859;53.906;27.430;2024-02-26T11:39:18;1006.8;;;7.6;75.7
74427;BME280;62859;53.906;27.430;2024-02-26T11:44:44;1006.9;;;7.5;75.7
74427;BME280;62859;53.906;27.430;2024-02-26T11:49:34;1007;;;7.5;76.1
74427;BME280;62859;53.906;27.430;2024-02-26T11:54:49;1006.9;;;7.5;76
74427;BME280;62859;53.906;27.430;2024-02-26T11:59:37;1007;;;7.5;75.7
74427;BME280;62859;53.906;27.430;2024-02-26T12:05:05;1007.1;;;7.6;76.4
74427;BME280;62859;53.906;27.430;2024-02-26T12:09:56;1007.1;;;7.6;76.4
74427;BME280;62859;53.906;27.430;2024-02-26T12:15:05;1007.1;;;7.6;76.3
74427;BME280;62859;53.906;27.430;2024-02-26T12:19:22;1007.1;;;7.6;76.3
74427;BME280;62859;53.906;27.430;2024-02-26T12:25:04;1007.2;;;7.5;76.6
74427;BME280;62859;53.906;27.430;2024-02-26T12:29:18;1007.2;;;7.5;76.6
74427;BME280;62859;53.906;27.430;2024-02-26T12:34:26;1007.3;;;7.5;76.7
74427;BME280;62859;53.906;27.430;2024-02-26T12:39:34;1007.3;;;7.5;76.3
74427;BME280;62859;53.906;27.430;2024-02-26T12:44:18;1007.3;;;7.5;76.5
74427;BME280;62859;53.906;27.430;2024-02-26T12:49:18;1007.4;;;7.6;76.3
74427;BME280;62859;53.906;27.430;2024-02-26T12:55:05;1007.2;;;7.7;76.1
74427;BME280;62859;53.906;27.430;2024-02-26T12:59:54;1007.2;;;7.7;76.1
74427;BME280;62859;53.906;27.430;2024-02-26T13:04:58;1007.3;;;7.7;75.8
74427;BME280;62859;53.906;27.430;2024-02-26T13:10:05;1007.2;;;7.7;75.8
74427;BME280;62859;53.906;27.430;2024-02-26T13:14:19;1007.2;;;7.7;75.8
74427;BME280;62859;53.906;27.430;2024-02-26T13:19:52;1007.3;;;7.6;75.7
74427;BME280;62859;53.906;27.430;2024-02-26T13:24:26;1007.3;;;7.6;76.1
74427;BME280;62859;53.906;27.430;2024-02-26T13:29:44;1007.4;;;7.6;76
74427;BME280;62859;53.906;27.430;2024-02-26T13:34:26;1007.4;;;7.7;76
74427;BME280;62859;53.906;27.430;2024-02-26T13:39:54;1007.5;;;7.7;75.8
74427;BME280;62859;53.906;27.430;2024-02-26T13:44:26;1007.5;;;7.7;76.1
74427;BME280;62859;53.906;27.430;2024-02-26T13:49:58;1007.4;;;7.7;75.8
74427;BME280;62859;53.906;27.430;2024-02-26T13:54:26;1007.5;;;7.7;75.8
74427;BME280;62859;53.906;27.430;2024-02-26T14:00:05;1007.7;;;7.6;75.8
74427;BME280;62859;53.906;27.430;2024-02-26T14:05:05;1007.7;;;7.6;75.9
74427;BME280;62859;53.906;27.430;2024-02-26T14:09:26;1007.7;;;7.6;75.9
74427;BME280;62859;53.906;27.430;2024-02-26T14:14:34;1007.9;;;7.7;75.9
74427;BME280;62859;53.906;27.430;2024-02-26T14:19:26;1007.9;;;7.8;76.2
74427;BME280;62859;53.906;27.430;2024-02-26T14:24:18;1007.9;;;7.8;75.5
74427;BME280;62859;53.906;27.430;2024-02-26T14:29:18;1007.9;;;7.9;75.1
74427;BME280;62859;53.906;27.430;2024-02-26T14:39:18;1008.1;;;7.9;74.4
74427;BME280;62859;53.906;27.430;2024-02-26T14:44:54;1008.1;;;7.9;74.5
74427;BME280;62859;53.906;27.430;2024-02-26T14:49:36;1008.1;;;8;74.3
74427;BME280;62859;53.906;27.430;2024-02-26T14:55:05;1008.3;;;8;74.7
74427;BME280;62859;53.906;27.430;2024-02-26T14:59:34;1008.3;;;8;74.7
74427;BME280;62859;53.906;27.430;2024-02-26T15:04:54;1008.2;;;8;74.7
74427;BME280;62859;53.906;27.430;2024-02-26T15:09:32;1008.3;;;8;74.3
74427;BME280;62859;53.906;27.430;2024-02-26T15:14:20;1008.4;;;7.9;74.4
74427;BME280;62859;53.906;27.430;2024-02-26T15:19:40;1008.4;;;8;74.5
74427;BME280;62859;53.906;27.430;2024-02-26T15:25:05;1008.5;;;8;74.2
74427;BME280;62859;53.906;27.430;2024-02-26T15:29:22;1008.5;;;8;74.2
74427;BME280;62859;53.906;27.430;2024-02-26T15:34:53;1008.5;;;8.1;74.1
74427;BME280;62859;53.906;27.430;2024-02-26T15:40:05;1008.7;;;8.1;74.3
74427;BME280;62859;53.906;27.430;2024-02-26T15:44:18;1008.7;;;8.1;74.3
74427;BME280;62859;53.906;27.430;2024-02-26T15:50:05;1008.8;;;8.1;74.4
74427;BME280;62859;53.906;27.430;2024-02-26T15:54:26;1008.8;;;8.1;74.4
74427;BME280;62859;53.906;27.430;2024-02-26T15:59:26;1008.8;;;8;74.2
74427;BME280;62859;53.906;27.430;2024-02-26T16:04:27;1008.8;;;8;74.3
74427;BME280;62859;53.906;27.430;2024-02-26T16:09:34;1008.9;;;8;74.4
74427;BME280;62859;53.906;27.430;2024-02-26T16:14:47;1008.9;;;8;74.1
74427;BME280;62859;53.906;27.430;2024-02-26T16:19:47;1008.9;;;8;73.9
74427;BME280;62859;53.906;27.430;2024-02-26T16:25:05;1008.9;;;8;74.5
74427;BME280;62859;53.906;27.430;2024-02-26T16:29:56;1008.9;;;8;74.5
74427;BME280;62859;53.906;27.430;2024-02-26T16:35:03;1009;;;7.9;74.1
74427;BME280;62859;53.906;27.430;2024-02-26T16:39:35;1009;;;7.9;74.3
74427;BME280;62859;53.906;27.430;2024-02-26T16:45:03;1009.1;;;7.9;74.1
74427;BME280;62859;53.906;27.430;2024-02-26T16:50:01;1009.2;;;7.8;73.8
74427;BME280;62859;53.906;27.430;2024-02-26T16:54:34;1009.2;;;7.9;73.8
74427;BME280;62859;53.906;27.430;2024-02-26T17:00:03;1009.3;;;7.8;73.9
74427;BME280;62859;53.906;27.430;2024-02-26T17:04:33;1009.3;;;7.8;74
74427;BME280;62859;53.906;27.430;2024-02-26T17:09:53;1009.4;;;7.9;74
74427;BME280;62859;53.906;27.430;2024-02-26T17:15:03;1009.5;;;7.9;74.4
74427;BME280;62859;53.906;27.430;2024-02-26T17:19:29;1009.5;;;7.8;73.8
74427;BME280;62859;53.906;27.430;2024-02-26T17:24:43;1009.5;;;7.8;73.9
74427;BME280;62859;53.906;27.430;2024-02-26T17:29:45;1009.5;;;7.8;74
74427;BME280;62859;53.906;27.430;2024-02-26T17:35:03;1009.6;;;7.8;73.9
74427;BME280;62859;53.906;27.430;2024-02-26T17:39:33;1009.7;;;7.7;74
74427;BME280;62859;53.906;27.430;2024-02-26T17:44:32;1009.7;;;7.7;74.2
74427;BME280;62859;53.906;27.430;2024-02-26T17:49:27;1009.7;;;7.8;74.3
74427;BME280;62859;53.906;27.430;2024-02-26T17:54:45;1009.6;;;7.8;73.9
74427;BME280;62859;53.906;27.430;2024-02-26T17:59:53;1009.6;;;7.8;73.9
74427;BME280;62859;53.906;27.430;2024-02-26T18:05:03;1009.7;;;7.8;73.5
74427;BME280;62859;53.906;27.430;2024-02-26T18:10:03;1009.7;;;7.7;73.6
74427;BME280;62859;53.906;27.430;2024-02-26T18:14:29;1009.7;;;7.8;73.4
74427;BME280;62859;53.906;27.430;2024-02-26T18:20:03;1009.7;;;7.7;73.4
74427;BME280;62859;53.906;27.430;2024-02-26T18:24:41;1009.7;;;7.7;73.4
74427;BME280;62859;53.906;27.430;2024-02-26T18:29:41;1009.8;;;7.7;73.5
74427;BME280;62859;53.906;27.430;2024-02-26T18:34:35;1009.7;;;7.7;73.6
74427;BME280;62859;53.906;27.430;2024-02-26T18:40:03;1009.7;;;7.8;73.2
74427;BME280;62859;53.906;27.430;2024-02-26T18:44:47;1009.7;;;7.8;73.2
74427;BME280;62859;53.906;27.430;2024-02-26T18:50:03;1009.8;;;7.7;73.1
74427;BME280;62859;53.906;27.430;2024-02-26T18:54:27;1009.8;;;7.7;73.1
74427;BME280;62859;53.906;27.430;2024-02-26T18:59:53;1009.8;;;7.8;73.1
74427;BME280;62859;53.906;27.430;2024-02-26T19:04:37;1009.9;;;7.8;72.7
74427;BME280;62859;53.906;27.430;2024-02-26T19:09:35;1009.9;;;7.8;72.8
74427;BME280;62859;53.906;27.430;2024-02-26T19:14:27;1009.9;;;7.8;72.9
74427;BME280;62859;53.906;27.430;2024-02-26T19:19:19;1009.9;;;7.8;73
74427;BME280;62859;53.906;27.430;2024-02-26T19:25:05;1010.1;;;7.7;73.1
74427;BME280;62859;53.906;27.430;2024-02-26T19:30:05;1010;;;7.8;72.7
74427;BME280;62859;53.906;27.430;2024-02-26T19:34:39;1010;;;7.8;72.7
74427;BME280;62859;53.906;27.430;2024-02-26T19:39:27;1010;;;7.7;72.8
74427;BME280;62859;53.906;27.430;2024-02-26T19:45:05;1010.1;;;7.7;72.8
74427;BME280;62859;53.906;27.430;2024-02-26T19:49:19;1010.1;;;7.7;72.8
74427;BME280;62859;53.906;27.430;2024-02-26T19:54:45;1010.1;;;7.7;73.4
74427;BME280;62859;53.906;27.430;2024-02-26T19:59:27;1010.1;;;7.7;73.2
74427;BME280;62859;53.906;27.430;2024-02-26T20:04:43;1010.2;;;7.7;73.5
74427;BME280;62859;53.906;27.430;2024-02-26T20:09:27;1010.2;;;7.7;73.3
74427;BME280;62859;53.906;27.430;2024-02-26T20:14:55;1010.2;;;7.7;73
74427;BME280;62859;53.906;27.430;2024-02-26T20:19:19;1010.1;;;7.6;73.2
74427;BME280;62859;53.906;27.430;2024-02-26T20:24:43;1010.1;;;7.6;73.6
74427;BME280;62859;53.906;27.430;2024-02-26T20:29:25;1010.2;;;7.6;73.7
74427;BME280;62859;53.906;27.430;2024-02-26T20:35:03;1010.5;;;7.7;73.7
74427;BME280;62859;53.906;27.430;2024-02-26T20:40:04;1010.4;;;7.7;73.6
74427;BME280;62859;53.906;27.430;2024-02-26T20:44:47;1010.4;;;7.7;73.6
74427;BME280;62859;53.906;27.430;2024-02-26T20:49:19;1010.3;;;7.7;73.7
74427;BME280;62859;53.906;27.430;2024-02-26T20:54:19;1010.3;;;7.7;73.6
74427;BME280;62859;53.906;27.430;2024-02-26T20:59:27;1010.2;;;7.7;73.7
74427;BME280;62859;53.906;27.430;2024-02-26T21:04:37;1010.3;;;7.6;73.9
74427;BME280;62859;53.906;27.430;2024-02-26T21:10:05;1010.2;;;7.6;74.3
74427;BME280;62859;53.906;27.430;2024-02-26T21:14:45;1010.2;;;7.6;74.3
74427;BME280;62859;53.906;27.430;2024-02-26T21:19:29;1010.2;;;7.6;74.4
74427;BME280;62859;53.906;27.430;2024-02-26T21:24:45;1010.2;;;7.7;74.6
74427;BME280;62859;53.906;27.430;2024-02-26T21:30:05;1010.2;;;7.7;74.7
74427;BME280;62859;53.906;27.430;2024-02-26T21:34:27;1010.2;;;7.7;74.7
74427;BME280;62859;53.906;27.430;2024-02-26T21:39:55;1010.3;;;7.7;74.9
74427;BME280;62859;53.906;27.430;2024-02-26T21:44:33;1010.4;;;7.8;74.8
74427;BME280;62859;53.906;27.430;2024-02-26T21:49:47;1010.5;;;7.8;74.8
74427;BME280;62859;53.906;27.430;2024-02-26T21:54:21;1010.5;;;7.8;74.8
74427;BME280;62859;53.906;27.430;2024-02-26T21:59:21;1010.5;;;7.8;74.8
74427;BME280;62859;53.906;27.430;2024-02-26T22:04:55;1010.6;;;7.9;74.9
74427;BME280;62859;53.906;27.430;2024-02-26T22:10:05;1010.7;;;7.9;75.2
74427;BME280;62859;53.906;27.430;2024-02-26T22:15:05;1010.7;;;7.9;74.9
74427;BME280;62859;53.906;27.430;2024-02-26T22:19:19;1010.7;;;7.9;74.9
74427;BME280;62859;53.906;27.430;2024-02-26T22:24:19;1010.7;;;7.8;75.1
74427;BME280;62859;53.906;27.430;2024-02-26T22:29:45;1010.8;;;7.8;74.8
74427;BME280;62859;53.906;27.430;2024-02-26T22:34:27;1010.8;;;7.8;74.6
74427;BME280;62859;53.906;27.430;2024-02-26T22:39:19;1010.8;;;7.8;74.7
74427;BME280;62859;53.906;27.430;2024-02-26T22:45:06;1010.8;;;7.8;74.7
74427;BME280;62859;53.906;27.430;2024-02-26T22:49:45;1010.8;;;7.8;74.7
74427;BME280;62859;53.906;27.430;2024-02-26T22:54:55;1010.7;;;7.8;74.4
74427;BME280;62859;53.906;27.430;2024-02-26T22:59:19;1010.8;;;7.8;74.1
74427;BME280;62859;53.906;27.430;2024-02-26T23:05:03;1010.8;;;7.8;73.3
74427;BME280;62859;53.906;27.430;2024-02-26T23:10:03;1010.8;;;7.9;72.8
74427;BME280;62859;53.906;27.430;2024-02-26T23:14:21;1010.8;;;7.9;72.8
74427;BME280;62859;53.906;27.430;2024-02-26T23:20:05;1010.8;;;7.8;72.7
74427;BME280;62859;53.906;27.430;2024-02-26T23:24:19;1010.8;;;7.8;72.7
74427;BME280;62859;53.906;27.430;2024-02-26T23:30:03;1010.8;;;7.7;72.2
74427;BME280;62859;53.906;27.430;2024-02-26T23:34:19;1010.8;;;7.7;72.2
74427;BME280;62859;53.906;27.430;2024-02-26T23:39:19;1010.8;;;7.7;72.6
74427;BME280;62859;53.906;27.430;2024-02-26T23:44:19;1010.8;;;7.7;72.2
74427;BME280;62859;53.906;27.430;2024-02-26T23:49:19;1010.8;;;7.6;72.2
74427;BME280;62859;53.906;27.430;2024-02-26T23:54:33;1010.9;;;7.6;71.7
